Time;durP1;ratioP1;P1;durP2;ratioP2;P2;SDS_P1;SDS_P2;PMS_P1;PMS_P2;Temp;Humidity;BMP_temperature;BMP_pressure;BME280_temperature;BME280_humidity;BME280_pressure;Samples;Min_cycle;Max_cycle;Signal;HPM_P1;HPM_P2
2022/10/28 00:00:06;;;;;;;1.45;1.35;;;16.60;80.40;;;;;;5085189;28;20019;-68
2022/10/28 00:02:32;;;;;;;2.15;1.27;;;16.50;80.30;;;;;;5094963;28;20070;-69
2022/10/28 00:04:58;;;;;;;3.90;1.90;;;16.50;80.30;;;;;;5090864;28;20043;-68
2022/10/28 00:07:23;;;;;;;7.13;1.85;;;16.50;80.30;;;;;;5092732;28;20107;-68
2022/10/28 00:09:49;;;;;;;6.03;1.27;;;16.50;80.30;;;;;;5094380;28;20106;-68
2022/10/28 00:12:15;;;;;;;1.73;1.15;;;16.50;80.30;;;;;;5111223;27;20028;-68
2022/10/28 00:14:41;;;;;;;1.30;1.13;;;16.40;80.30;;;;;;5109280;28;20031;-68
2022/10/28 00:17:06;;;;;;;16.38;1.52;;;16.40;80.40;;;;;;5107065;28;20492;-68
2022/10/28 00:19:32;;;;;;;2.60;1.73;;;16.40;80.50;;;;;;5091947;28;20387;-68
2022/10/28 00:21:57;;;;;;;4.45;1.30;;;16.30;80.40;;;;;;5107750;28;20020;-68
2022/10/28 00:24:23;;;;;;;5.70;1.80;;;16.30;80.40;;;;;;5103778;28;20032;-68
2022/10/28 00:26:49;;;;;;;2.25;1.35;;;16.30;80.40;;;;;;5108427;28;20387;-68
2022/10/28 00:29:17;;;;;;;2.08;1.50;;;16.30;80.40;;;;;;5103687;28;20032;-71
2022/10/28 00:31:44;;;;;;;2.78;1.85;;;16.30;80.50;;;;;;5112726;28;20036;-71
2022/10/28 00:34:15;;;;;;;4.75;1.60;;;16.30;80.40;;;;;;5102885;28;20127;-71
2022/10/28 00:36:43;;;;;;;3.17;1.80;;;16.20;80.30;;;;;;5099626;28;20515;-71
2022/10/28 00:39:21;;;;;;;10.93;1.75;;;16.20;80.30;;;;;;5093983;28;20442;-68
2022/10/28 00:41:56;;;;;;;2.47;1.40;;;16.20;80.30;;;;;;5105292;28;20055;-68
2022/10/28 00:44:51;;;;;;;3.10;1.67;;;16.20;80.50;;;;;;5112907;28;20035;-68
2022/10/28 00:47:34;;;;;;;2.78;1.80;;;16.20;80.40;;;;;;5103066;27;20028;-67
2022/10/28 00:50:23;;;;;;;2.72;1.40;;;16.10;80.50;;;;;;5092672;28;20036;-71
2022/10/28 00:52:54;;;;;;;7.53;1.65;;;16.10;80.50;;;;;;5094472;28;20035;-71
2022/10/28 00:55:21;;;;;;;2.05;1.63;;;16.10;80.50;;;;;;5094102;28;20044;-68
2022/10/28 00:57:47;;;;;;;3.17;1.67;;;16.10;80.50;;;;;;5100105;28;20055;-68
2022/10/28 01:00:13;;;;;;;3.28;1.73;;;16.00;80.50;;;;;;5100917;28;20490;-71
2022/10/28 01:02:47;;;;;;;2.03;1.55;;;16.00;80.40;;;;;;5099350;28;20039;-71
2022/10/28 01:05:20;;;;;;;11.68;1.52;;;16.10;80.40;;;;;;5113216;28;20103;-71
2022/10/28 01:07:46;;;;;;;1.55;1.45;;;16.10;80.40;;;;;;5101100;28;20028;-68
2022/10/28 01:10:13;;;;;;;3.90;1.73;;;16.00;80.40;;;;;;5107616;28;20035;-71
2022/10/28 01:13:14;;;;;;;3.70;1.88;;;16.00;80.40;;;;;;5094730;28;20018;-68
2022/10/28 01:15:43;;;;;;;2.80;1.65;;;16.00;80.40;;;;;;5097079;28;20048;-67
2022/10/28 01:18:30;;;;;;;9.77;2.08;;;15.90;80.50;;;;;;5098810;28;20115;-68
2022/10/28 01:21:32;;;;;;;3.95;1.90;;;15.90;80.60;;;;;;5102880;28;20489;-71
2022/10/28 01:23:58;;;;;;;2.28;2.08;;;15.90;80.50;;;;;;5088837;28;20371;-68
2022/10/28 01:26:43;;;;;;;3.22;1.73;;;15.80;80.70;;;;;;5099403;28;20028;-71
2022/10/28 01:29:23;;;;;;;3.03;1.77;;;15.80;80.80;;;;;;5090085;28;20032;-68
2022/10/28 01:32:09;;;;;;;3.22;1.40;;;15.80;81.00;;;;;;5100710;28;20032;-68
2022/10/28 01:34:47;;;;;;;3.17;1.95;;;15.80;80.90;;;;;;5112891;28;20020;-71
2022/10/28 01:37:17;;;;;;;2.80;1.50;;;15.80;81.00;;;;;;5092749;28;20544;-69
2022/10/28 01:40:04;;;;;;;1.77;1.50;;;15.80;81.00;;;;;;5103443;28;20026;-70
2022/10/28 01:42:41;;;;;;;1.77;1.52;;;15.80;80.90;;;;;;5084911;28;20107;-71
2022/10/28 01:45:29;;;;;;;2.75;2.13;;;15.80;80.80;;;;;;5105269;28;20078;-71
2022/10/28 01:48:00;;;;;;;2.20;1.80;;;15.90;80.70;;;;;;5090580;28;20031;-70
2022/10/28 01:51:06;;;;;;;2.28;1.58;;;15.80;80.80;;;;;;5107877;28;20437;-70
2022/10/28 01:53:37;;;;;;;2.47;1.40;;;15.80;80.70;;;;;;5086311;28;20115;-71
2022/10/28 01:56:09;;;;;;;2.55;1.60;;;15.80;80.90;;;;;;5086682;28;20032;-68
2022/10/28 01:58:36;;;;;;;;;;;15.80;80.80;;;;;;5093642;28;20482;-68
2022/10/28 02:01:05;;;;;;;2.63;1.80;;;15.70;80.80;;;;;;5102614;28;19915;-67
2022/10/28 02:03:31;;;;;;;3.97;2.03;;;15.70;81.00;;;;;;5099115;28;20433;-68
2022/10/28 02:06:01;;;;;;;3.80;1.98;;;15.70;80.90;;;;;;5094733;28;20089;-68
2022/10/28 02:08:32;;;;;;;2.45;1.65;;;15.70;80.90;;;;;;5095430;28;20071;-68
2022/10/28 02:11:23;;;;;;;2.30;1.50;;;15.70;80.90;;;;;;5109991;28;20026;-68
2022/10/28 02:14:09;;;;;;;2.65;1.83;;;15.70;80.80;;;;;;5086825;28;20031;-67
2022/10/28 02:16:38;;;;;;;3.17;1.42;;;15.70;80.80;;;;;;5094818;28;20019;-68
2022/10/28 02:19:31;;;;;;;3.92;1.92;;;15.60;80.90;;;;;;5100701;28;20024;-67
2022/10/28 02:22:25;;;;;;;2.45;1.77;;;15.60;80.80;;;;;;5107017;28;20530;-68
2022/10/28 02:24:59;;;;;;;1.90;1.63;;;15.60;80.80;;;;;;5111082;28;20106;-68
2022/10/28 02:28:02;;;;;;;3.78;1.70;;;15.60;80.90;;;;;;5107998;28;20058;-68
2022/10/28 02:30:38;;;;;;;;;;;15.60;80.80;;;;;;5094602;28;20026;-68
2022/10/28 02:33:07;;;;;;;3.13;1.77;;;15.50;80.90;;;;;;5090134;28;19931;-68
2022/10/28 02:35:40;;;;;;;2.17;1.83;;;15.40;81.10;;;;;;5106926;28;20020;-68
2022/10/28 02:38:12;;;;;;;1.48;1.35;;;15.50;81.10;;;;;;5104352;28;20027;-71
2022/10/28 02:40:38;;;;;;;;;;;15.50;81.10;;;;;;5094705;28;20166;-68
2022/10/28 02:43:08;;;;;;;2.88;1.92;;;15.40;81.00;;;;;;5101728;28;19908;-71
2022/10/28 02:45:38;;;;;;;2.03;1.63;;;15.40;81.30;;;;;;5091105;28;20066;-67
2022/10/28 02:48:15;;;;;;;2.83;1.77;;;15.40;81.10;;;;;;5089266;28;20028;-68
2022/10/28 02:50:48;;;;;;;2.50;1.98;;;15.50;81.10;;;;;;5102120;28;20157;-68
2022/10/28 02:53:27;;;;;;;2.45;1.58;;;15.40;81.00;;;;;;5110076;28;20020;-67
2022/10/28 02:55:56;;;;;;;5.20;2.08;;;15.50;81.10;;;;;;5102465;28;20040;-70
2022/10/28 02:58:22;;;;;;;2.60;1.63;;;15.40;81.10;;;;;;5104703;28;20031;-68
2022/10/28 03:00:48;;;;;;;4.65;1.92;;;15.40;81.20;;;;;;5094429;28;20028;-71
2022/10/28 03:03:14;;;;;;;2.65;1.80;;;15.40;81.20;;;;;;5105017;28;20024;-71
2022/10/28 03:05:40;;;;;;;7.47;1.90;;;15.40;81.30;;;;;;5089570;28;20043;-68
2022/10/28 03:08:05;;;;;;;3.40;1.70;;;15.40;81.90;;;;;;5103886;28;20055;-71
2022/10/28 03:10:31;;;;;;;6.50;2.33;;;15.30;81.20;;;;;;5093129;28;20039;-68
2022/10/28 03:13:00;;;;;;;2.25;1.70;;;15.30;81.30;;;;;;5105947;28;20469;-68
2022/10/28 03:15:25;;;;;;;3.72;1.65;;;15.30;81.30;;;;;;5099714;28;20528;-68
2022/10/28 03:17:51;;;;;;;2.42;1.75;;;15.30;81.20;;;;;;5104857;28;20027;-71
2022/10/28 03:20:17;;;;;;;2.20;1.67;;;15.30;81.90;;;;;;5091166;28;20433;-71
2022/10/28 03:22:43;;;;;;;2.78;1.92;;;15.30;81.40;;;;;;5099753;28;20040;-71
2022/10/28 03:25:09;;;;;;;15.73;2.50;;;15.30;81.30;;;;;;5104188;28;20117;-71
2022/10/28 03:27:34;;;;;;;2.47;1.77;;;15.30;81.30;;;;;;5098953;28;20093;-68
2022/10/28 03:30:00;;;;;;;3.05;1.60;;;15.30;81.40;;;;;;5103553;28;20039;-71
2022/10/28 03:32:26;;;;;;;2.47;1.58;;;15.30;81.50;;;;;;5089908;28;20036;-71
2022/10/28 03:34:51;;;;;;;3.08;2.10;;;15.30;81.50;;;;;;5100158;28;20036;-68
2022/10/28 03:37:17;;;;;;;2.15;1.80;;;15.30;81.60;;;;;;5093836;28;20059;-68
2022/10/28 03:39:43;;;;;;;2.75;1.88;;;15.30;81.60;;;;;;5105321;28;20086;-68
2022/10/28 03:42:08;;;;;;;2.95;1.95;;;15.30;81.60;;;;;;5107890;28;20067;-68
2022/10/28 03:44:34;;;;;;;8.48;1.75;;;15.30;81.60;;;;;;5096967;28;20475;-71
2022/10/28 03:46:59;;;;;;;2.50;1.70;;;15.30;81.70;;;;;;5090065;28;20065;-70
2022/10/28 03:49:25;;;;;;;2.38;1.70;;;15.30;81.80;;;;;;5097539;28;20035;-68
2022/10/28 03:51:51;;;;;;;3.90;1.58;;;15.30;81.60;;;;;;5095954;28;20452;-68
2022/10/28 03:54:16;;;;;;;4.93;2.10;;;15.40;81.70;;;;;;5089260;28;20089;-70
2022/10/28 03:56:42;;;;;;;2.97;2.25;;;15.40;81.90;;;;;;5091438;28;20391;-71
2022/10/28 03:59:09;;;;;;;2.22;1.48;;;15.40;81.90;;;;;;5090770;28;20090;-68
2022/10/28 04:01:34;;;;;;;2.20;1.83;;;15.40;81.90;;;;;;5088292;28;20063;-68
2022/10/28 04:04:00;;;;;;;1.88;1.70;;;15.40;81.80;;;;;;5087643;28;20055;-71
2022/10/28 04:06:26;;;;;;;4.03;1.48;;;15.40;81.80;;;;;;5090031;28;20031;-68
2022/10/28 04:08:51;;;;;;;3.13;2.25;;;15.40;82.00;;;;;;5089034;28;20473;-68
2022/10/28 04:11:17;;;;;;;3.78;1.58;;;15.40;81.90;;;;;;5091482;28;20077;-71
2022/10/28 04:13:43;;;;;;;3.05;1.63;;;15.40;82.00;;;;;;5087283;28;20149;-68
2022/10/28 04:16:08;;;;;;;2.35;1.55;;;15.50;82.00;;;;;;5081390;28;20032;-68
2022/10/28 04:18:34;;;;;;;2.80;1.83;;;15.50;82.10;;;;;;5087572;28;20272;-68
2022/10/28 04:21:00;;;;;;;1.60;1.20;;;15.40;82.10;;;;;;5099310;28;20046;-68
2022/10/28 04:23:26;;;;;;;4.57;1.45;;;15.50;82.10;;;;;;5091827;28;20025;-67
2022/10/28 04:25:53;;;;;;;3.42;1.65;;;15.40;82.10;;;;;;5091897;28;20043;-68
2022/10/28 04:28:20;;;;;;;2.97;1.75;;;15.40;82.10;;;;;;5091657;28;20032;-68
2022/10/28 04:30:46;;;;;;;3.75;1.73;;;15.40;82.10;;;;;;5094576;28;20049;-71
2022/10/28 04:33:12;;;;;;;2.45;1.58;;;15.40;82.20;;;;;;5089515;28;20103;-68
2022/10/28 04:35:41;;;;;;;2.75;1.90;;;15.40;82.20;;;;;;5090363;28;20433;-68
2022/10/28 04:38:08;;;;;;;3.42;1.70;;;15.40;82.30;;;;;;5092170;28;20027;-68
2022/10/28 04:40:33;;;;;;;4.47;2.05;;;15.40;82.30;;;;;;5092772;28;20023;-71
2022/10/28 04:42:59;;;;;;;1.10;1.00;;;15.30;82.30;;;;;;5091584;28;20464;-68
2022/10/28 04:45:24;;;;;;;2.63;1.65;;;15.40;82.40;;;;;;5098745;28;21092;-71
2022/10/28 04:47:56;;;;;;;5.18;1.70;;;15.30;82.30;;;;;;5099711;28;20164;-68
2022/10/28 04:50:22;;;;;;;2.67;1.50;;;15.30;82.20;;;;;;5104421;28;20055;-71
2022/10/28 04:52:47;;;;;;;5.68;1.92;;;15.30;82.20;;;;;;5110769;28;20087;-68
2022/10/28 04:55:13;;;;;;;1.95;1.23;;;15.30;82.10;;;;;;5104871;28;20464;-71
2022/10/28 04:57:39;;;;;;;2.10;1.55;;;15.30;82.10;;;;;;5093394;28;20032;-68
2022/10/28 05:00:05;;;;;;;2.30;1.73;;;15.20;82.10;;;;;;5098712;28;20024;-67
2022/10/28 05:02:31;;;;;;;4.80;1.27;;;15.20;82.10;;;;;;5105178;28;20039;-67
2022/10/28 05:05:01;;;;;;;1.83;1.65;;;15.20;82.10;;;;;;5098525;28;20035;-68
2022/10/28 05:07:26;;;;;;;2.33;1.67;;;15.20;82.10;;;;;;5095237;28;20406;-68
2022/10/28 05:09:52;;;;;;;2.63;1.75;;;15.20;82.10;;;;;;5097155;28;20039;-69
2022/10/28 05:12:18;;;;;;;1.60;1.48;;;15.20;82.00;;;;;;5112750;28;20055;-68
2022/10/28 05:14:43;;;;;;;1.25;1.15;;;15.20;82.00;;;;;;5090212;28;20024;-68
2022/10/28 05:17:10;;;;;;;1.88;1.23;;;15.10;82.00;;;;;;5091794;28;20032;-68
2022/10/28 05:19:35;;;;;;;2.78;1.23;;;15.10;82.10;;;;;;5090135;28;20028;-68
2022/10/28 05:22:01;;;;;;;1.80;1.10;;;15.00;82.10;;;;;;5087308;28;20156;-67
2022/10/28 05:24:27;;;;;;;2.28;1.45;;;15.00;82.10;;;;;;5089974;28;20058;-70
2022/10/28 05:26:53;;;;;;;4.57;1.60;;;15.00;82.10;;;;;;5091747;28;20028;-71
2022/10/28 05:29:19;;;;;;;3.25;1.75;;;15.00;82.10;;;;;;5092970;28;20036;-68
2022/10/28 05:31:45;;;;;;;1.38;1.17;;;15.00;82.20;;;;;;5091310;28;20032;-68
2022/10/28 05:34:11;;;;;;;2.50;1.83;;;14.90;82.00;;;;;;5089698;28;20024;-68
2022/10/28 05:36:37;;;;;;;4.20;1.50;;;14.90;82.00;;;;;;5088984;28;20023;-67
2022/10/28 05:39:03;;;;;;;1.38;1.27;;;14.90;82.00;;;;;;5089035;28;20460;-71
2022/10/28 05:41:29;;;;;;;18.15;1.65;;;14.90;82.00;;;;;;5090899;28;20028;-68
2022/10/28 05:43:55;;;;;;;2.55;1.67;;;14.80;82.00;;;;;;5090651;28;20028;-67
2022/10/28 05:46:21;;;;;;;2.85;1.48;;;14.80;81.90;;;;;;5090799;28;20571;-68
2022/10/28 05:48:47;;;;;;;1.77;1.42;;;14.80;82.10;;;;;;5089282;28;20063;-68
2022/10/28 05:51:12;;;;;;;4.22;1.58;;;14.80;82.10;;;;;;5095832;28;20067;-68
2022/10/28 05:53:40;;;;;;;2.00;1.30;;;14.80;82.10;;;;;;5097903;28;20506;-68
2022/10/28 05:56:07;;;;;;;1.55;1.05;;;14.80;82.10;;;;;;5093634;28;20059;-68
2022/10/28 05:58:33;;;;;;;1.98;1.23;;;14.70;82.00;;;;;;5110641;28;20343;-67
2022/10/28 06:00:59;;;;;;;5.05;1.50;;;14.70;82.10;;;;;;5095450;28;20107;-71
2022/10/28 06:03:25;;;;;;;5.10;1.45;;;14.70;82.10;;;;;;5092499;28;20119;-71
2022/10/28 06:05:51;;;;;;;2.85;1.95;;;14.70;82.10;;;;;;5091715;28;20028;-71
2022/10/28 06:08:17;;;;;;;2.15;1.95;;;14.70;82.20;;;;;;5091114;28;20036;-71
2022/10/28 06:10:49;;;;;;;4.00;1.38;;;14.70;82.20;;;;;;5090308;28;20115;-71
2022/10/28 06:13:15;;;;;;;5.15;1.52;;;14.70;82.00;;;;;;5091154;28;20032;-71
2022/10/28 06:15:41;;;;;;;1.92;1.52;;;14.70;82.10;;;;;;5092048;28;20028;-71
2022/10/28 06:18:06;;;;;;;2.08;1.00;;;14.60;82.10;;;;;;5105486;28;20028;-71
2022/10/28 06:20:32;;;;;;;4.85;2.03;;;14.60;82.10;;;;;;5103422;28;20028;-71
2022/10/28 06:22:58;;;;;;;2.67;1.30;;;14.60;82.10;;;;;;5089934;28;20095;-71
2022/10/28 06:25:25;;;;;;;3.13;1.25;;;14.60;82.20;;;;;;5093444;28;20425;-71
2022/10/28 06:27:56;;;;;;;3.92;1.42;;;14.60;82.20;;;;;;5091867;28;20539;-71
2022/10/28 06:30:22;;;;;;;1.38;1.27;;;14.50;82.20;;;;;;5089830;28;20035;-68
2022/10/28 06:32:48;;;;;;;12.27;1.77;;;14.50;82.30;;;;;;5085399;28;20539;-68
2022/10/28 06:35:14;;;;;;;5.88;1.60;;;14.50;82.30;;;;;;5100116;28;20095;-71
2022/10/28 06:37:40;;;;;;;4.25;2.28;;;14.50;82.30;;;;;;5080952;28;20024;-67
2022/10/28 06:40:06;;;;;;;1.77;1.40;;;14.50;82.30;;;;;;5087603;28;20024;-68
2022/10/28 06:42:32;;;;;;;2.30;1.42;;;14.50;82.30;;;;;;5089419;28;20035;-71
2022/10/28 06:44:57;;;;;;;2.17;1.50;;;14.50;82.30;;;;;;5091355;28;20431;-71
2022/10/28 06:47:23;;;;;;;2.33;1.60;;;14.40;82.20;;;;;;5089531;28;20032;-71
2022/10/28 06:49:49;;;;;;;2.10;1.42;;;14.40;82.30;;;;;;5095440;28;20039;-68
2022/10/28 06:52:14;;;;;;;1.98;1.48;;;14.50;82.30;;;;;;5101304;28;20080;-69
2022/10/28 06:54:42;;;;;;;3.58;1.63;;;14.50;82.30;;;;;;5105853;28;20032;-73
2022/10/28 06:57:08;;;;;;;3.47;1.20;;;14.50;82.30;;;;;;5069973;28;20579;-70
2022/10/28 06:59:34;;;;;;;2.05;1.00;;;14.50;82.30;;;;;;5088262;28;20027;-70
2022/10/28 07:02:00;;;;;;;3.53;1.70;;;14.50;82.30;;;;;;5087883;28;20479;-71
2022/10/28 07:04:25;;;;;;;2.25;1.45;;;14.60;82.30;;;;;;5082626;28;20037;-70
2022/10/28 07:06:54;;;;;;;0.82;0.77;;;14.60;82.30;;;;;;5078963;28;20036;-69
2022/10/28 07:09:20;;;;;;;2.10;1.42;;;14.70;82.20;;;;;;5083275;28;20028;-70
2022/10/28 07:11:48;;;;;;;2.60;1.88;;;14.70;82.30;;;;;;5082006;28;20411;-71
2022/10/28 07:14:13;;;;;;;3.72;1.55;;;14.70;82.30;;;;;;5078168;28;20102;-70
2022/10/28 07:16:40;;;;;;;2.85;1.90;;;14.80;82.30;;;;;;5076595;28;20060;-70
2022/10/28 07:19:06;;;;;;;2.95;2.10;;;14.80;82.20;;;;;;5081477;28;20538;-70
2022/10/28 07:21:32;;;;;;;2.28;1.73;;;14.90;82.30;;;;;;5083583;28;20107;-69
2022/10/28 07:23:58;;;;;;;2.28;1.58;;;14.90;82.20;;;;;;5088894;28;20055;-69
2022/10/28 07:26:23;;;;;;;2.15;1.55;;;15.00;82.30;;;;;;5089914;28;20049;-69
2022/10/28 07:28:49;;;;;;;2.65;1.42;;;15.00;82.30;;;;;;5089867;28;20034;-69
2022/10/28 07:31:15;;;;;;;2.97;1.50;;;15.00;82.30;;;;;;5087860;28;20112;-72
2022/10/28 07:33:41;;;;;;;3.03;1.88;;;15.00;82.30;;;;;;5090052;28;20032;-68
2022/10/28 07:36:07;;;;;;;2.72;1.33;;;15.10;82.30;;;;;;5070861;28;20035;-69
2022/10/28 07:38:33;;;;;;;1.85;1.52;;;15.10;82.30;;;;;;5085662;28;20038;-70
2022/10/28 07:41:04;;;;;;;2.58;1.90;;;15.20;82.20;;;;;;5087521;28;20040;-69
2022/10/28 07:43:29;;;;;;;1.70;1.42;;;15.20;82.20;;;;;;5091067;28;20393;-69
2022/10/28 07:45:56;;;;;;;3.58;1.30;;;15.30;82.20;;;;;;5090092;28;20032;-69
2022/10/28 07:48:22;;;;;;;2.47;1.67;;;15.40;82.20;;;;;;5088602;28;20039;-69
2022/10/28 07:50:48;;;;;;;1.58;1.48;;;15.40;82.20;;;;;;5093627;28;20040;-71
2022/10/28 07:53:14;;;;;;;2.33;1.38;;;15.40;82.10;;;;;;5089694;28;20024;-70
2022/10/28 07:55:39;;;;;;;7.60;2.42;;;15.50;82.20;;;;;;5093260;28;20138;-70
2022/10/28 07:58:05;;;;;;;4.03;2.30;;;15.60;82.20;;;;;;5081567;28;20036;-70
2022/10/28 08:00:31;;;;;;;1.35;1.05;;;15.70;82.20;;;;;;5096781;28;20123;-70
2022/10/28 08:02:56;;;;;;;3.70;2.22;;;15.70;82.20;;;;;;5094326;28;20032;-69
2022/10/28 08:05:22;;;;;;;2.13;1.80;;;15.80;81.90;;;;;;5090372;28;20034;-70
2022/10/28 08:07:48;;;;;;;2.00;1.13;;;15.90;81.80;;;;;;5075960;28;20486;-70
2022/10/28 08:10:13;;;;;;;1.90;1.40;;;16.00;81.80;;;;;;5099489;28;20386;-70
2022/10/28 08:12:39;;;;;;;2.00;1.80;;;16.00;81.70;;;;;;5091783;28;20032;-70
2022/10/28 08:15:08;;;;;;;3.13;1.85;;;16.20;81.80;;;;;;5091455;28;20035;-70
2022/10/28 08:17:33;;;;;;;1.55;1.30;;;16.20;81.80;;;;;;5080890;28;20342;-70
2022/10/28 08:19:59;;;;;;;1.65;1.27;;;16.30;81.80;;;;;;5085573;28;20086;-70
2022/10/28 08:22:25;;;;;;;4.85;1.60;;;16.50;81.70;;;;;;5073621;28;20031;-69
2022/10/28 08:24:50;;;;;;;2.60;1.10;;;16.60;81.50;;;;;;5090747;28;20040;-70
2022/10/28 08:27:16;;;;;;;5.25;2.00;;;16.70;81.30;;;;;;5099254;28;20037;-70
2022/10/28 08:29:42;;;;;;;4.22;1.77;;;16.80;81.20;;;;;;5102003;28;20073;-70
2022/10/28 08:32:08;;;;;;;6.03;1.40;;;16.90;81.10;;;;;;5096081;28;20040;-69
2022/10/28 08:34:34;;;;;;;3.58;1.77;;;17.00;81.00;;;;;;5102568;28;20497;-69
2022/10/28 08:37:00;;;;;;;2.17;1.63;;;17.10;80.90;;;;;;5091338;28;20020;-69
2022/10/28 08:39:25;;;;;;;2.03;1.55;;;17.20;80.90;;;;;;5073661;28;20093;-69
2022/10/28 08:42:25;;;;;;;2.13;1.58;;;17.20;80.80;;;;;;5096457;28;20571;-69
2022/10/28 08:45:12;;;;;;;2.45;1.67;;;17.30;80.60;;;;;;5085404;28;20637;-69
2022/10/28 08:47:46;;;;;;;3.38;1.48;;;17.40;80.70;;;;;;5091026;28;20044;-69
2022/10/28 08:50:15;;;;;;;6.53;1.65;;;17.50;80.60;;;;;;5086390;28;20042;-69
2022/10/28 08:53:02;;;;;;;3.10;1.90;;;17.50;80.40;;;;;;5093878;28;20042;-69
2022/10/28 08:55:35;;;;;;;2.00;1.50;;;17.60;80.40;;;;;;5088958;28;20456;-69
2022/10/28 08:58:15;;;;;;;7.57;2.38;;;17.80;80.30;;;;;;5095045;28;20027;-69
2022/10/28 09:00:55;;;;;;;6.32;1.90;;;18.00;80.00;;;;;;5088567;28;20146;-69
2022/10/28 09:03:26;;;;;;;3.45;1.92;;;18.10;79.90;;;;;;5093459;28;20024;-70
2022/10/28 09:06:06;;;;;;;3.67;2.13;;;18.20;79.80;;;;;;5096939;28;20017;-69
2022/10/28 09:08:39;;;;;;;1.60;1.50;;;18.30;79.60;;;;;;5088403;28;20475;-69
2022/10/28 09:11:15;;;;;;;2.97;1.75;;;18.50;79.40;;;;;;5093697;28;20067;-70
2022/10/28 09:14:07;;;;;;;3.05;1.63;;;18.60;79.20;;;;;;5084324;28;20020;-70
2022/10/28 09:16:53;;;;;;;5.20;1.73;;;18.80;78.90;;;;;;5087222;28;20061;-69
2022/10/28 09:19:46;;;;;;;5.05;1.40;;;19.00;78.70;;;;;;5097224;28;20077;-69
2022/10/28 09:22:32;;;;;;;1.90;1.40;;;19.10;78.30;;;;;;5090692;28;20044;-70
2022/10/28 09:25:01;;;;;;;5.68;1.63;;;19.30;78.00;;;;;;5085617;28;20119;-70
2022/10/28 09:27:30;;;;;;;2.38;1.75;;;19.60;77.80;;;;;;5094008;28;20482;-70
2022/10/28 09:30:33;;;;;;;3.63;1.83;;;19.80;77.40;;;;;;5098152;28;20371;-70
2022/10/28 09:33:28;;;;;;;2.42;1.90;;;20.10;76.90;;;;;;5079034;28;20081;-69
2022/10/28 09:35:55;;;;;;;1.73;1.50;;;20.40;76.40;;;;;;5077207;28;20036;-70
2022/10/28 09:38:36;;;;;;;3.15;1.58;;;20.40;75.70;;;;;;5083256;28;20358;-69
2022/10/28 09:41:18;;;;;;;3.37;1.80;;;20.60;75.90;;;;;;5089957;28;20084;-69
2022/10/28 09:44:22;;;;;;;10.82;1.83;;;20.70;75.90;;;;;;5082539;28;20048;-69
2022/10/28 09:46:52;;;;;;;2.70;1.65;;;20.70;75.80;;;;;;5094746;28;20032;-69
2022/10/28 09:49:22;;;;;;;2.15;1.38;;;20.70;76.00;;;;;;5088418;28;20051;-70
2022/10/28 09:52:12;;;;;;;1.88;1.52;;;20.80;75.90;;;;;;5091191;28;20378;-69
2022/10/28 09:54:43;;;;;;;9.23;2.40;;;20.90;75.80;;;;;;5086678;28;20542;-70
2022/10/28 09:57:11;;;;;;;3.55;1.98;;;20.90;75.10;;;;;;5085381;28;20082;-69
2022/10/28 09:59:37;;;;;;;1.83;1.27;;;20.90;75.30;;;;;;5086205;28;20363;-69
2022/10/28 10:02:03;;;;;;;2.22;1.70;;;21.00;75.30;;;;;;5090406;28;20035;-70
2022/10/28 10:04:30;;;;;;;3.53;2.08;;;21.00;75.20;;;;;;5089394;28;20475;-69
2022/10/28 10:07:04;;;;;;;3.08;1.38;;;21.00;75.10;;;;;;5085782;28;20032;-70
2022/10/28 10:09:32;;;;;;;5.93;1.42;;;21.00;75.20;;;;;;5100284;28;20059;-69
2022/10/28 10:12:11;;;;;;;2.67;1.40;;;21.00;75.20;;;;;;5091147;28;20030;-69
2022/10/28 10:14:48;;;;;;;4.03;1.77;;;20.90;75.30;;;;;;5086959;28;20032;-69
2022/10/28 10:17:21;;;;;;;2.25;1.20;;;20.90;75.30;;;;;;5090411;28;20035;-69
2022/10/28 10:19:59;;;;;;;2.42;1.85;;;20.90;75.30;;;;;;5086599;28;20164;-69
2022/10/28 10:22:36;;;;;;;7.50;1.90;;;21.10;75.10;;;;;;5086642;28;20028;-70
2022/10/28 10:25:24;;;;;;;0.80;0.80;;;21.20;74.90;;;;;;5091797;28;20483;-69
2022/10/28 10:28:16;;;;;;;4.43;2.58;;;21.40;74.70;;;;;;5090550;28;20028;-69
2022/10/28 10:30:50;;;;;;;3.25;1.85;;;21.50;74.60;;;;;;5092897;28;20074;-69
2022/10/28 10:33:25;;;;;;;3.25;2.17;;;21.50;74.60;;;;;;5078353;28;20020;-69
2022/10/28 10:35:56;;;;;;;2.80;1.38;;;21.70;74.50;;;;;;5084527;28;20024;-69
2022/10/28 10:38:22;;;;;;;1.35;1.20;;;21.80;74.30;;;;;;5099738;28;20483;-70
2022/10/28 10:40:49;;;;;;;3.90;2.33;;;21.90;73.80;;;;;;5093309;28;20031;-70
2022/10/28 10:43:32;;;;;;;1.75;1.48;;;22.00;73.70;;;;;;5088142;28;20043;-69
2022/10/28 10:46:01;;;;;;;2.05;0.90;;;22.10;73.60;;;;;;5085298;28;20095;-69
2022/10/28 10:48:33;;;;;;;2.50;1.65;;;22.20;73.50;;;;;;5088309;28;20371;-69
2022/10/28 10:51:05;;;;;;;1.88;1.67;;;22.20;73.50;;;;;;5081022;28;20027;-70
2022/10/28 10:53:33;;;;;;;2.60;1.60;;;22.20;73.60;;;;;;5086957;28;20029;-70
2022/10/28 10:56:10;;;;;;;1.85;1.30;;;22.30;73.50;;;;;;5067119;28;20028;-70
2022/10/28 10:58:57;;;;;;;3.63;1.65;;;22.40;73.30;;;;;;5081953;28;20109;-70
2022/10/28 11:01:27;;;;;;;3.60;1.75;;;22.50;73.10;;;;;;5102704;28;20043;-70
2022/10/28 11:04:13;;;;;;;3.72;2.00;;;22.60;72.90;;;;;;5090366;28;20104;-69
2022/10/28 11:06:42;;;;;;;9.13;2.38;;;22.60;72.70;;;;;;5080864;28;20047;-70
2022/10/28 11:09:25;;;;;;;5.72;1.73;;;22.70;72.30;;;;;;5081488;28;20416;-70
2022/10/28 11:11:54;;;;;;;3.28;1.58;;;22.90;72.00;;;;;;5076754;28;20074;-70
2022/10/28 11:14:25;;;;;;;3.83;2.10;;;23.00;71.30;;;;;;5071541;28;20028;-70
2022/10/28 11:16:56;;;;;;;3.63;1.90;;;23.00;71.10;;;;;;5087480;28;20043;-70
2022/10/28 11:19:22;;;;;;;4.47;1.42;;;23.00;71.10;;;;;;5100360;28;20039;-70
2022/10/28 11:22:20;;;;;;;0.80;0.80;;;23.10;71.20;;;;;;5089951;28;20077;-70
2022/10/28 11:24:49;;;;;;;2.13;1.10;;;23.20;70.80;;;;;;5084865;28;20475;-70
2022/10/28 11:27:41;;;;;;;4.35;1.52;;;23.30;70.30;;;;;;5089770;28;20025;-70
2022/10/28 11:30:14;;;;;;;13.85;2.58;;;23.40;70.20;;;;;;5088048;28;20062;-70
2022/10/28 11:33:06;;;;;;;5.82;1.73;;;23.20;70.20;;;;;;5089634;28;20036;-70
2022/10/28 11:35:50;;;;;;;1.85;1.45;;;23.10;70.60;;;;;;5078041;28;20110;-70
2022/10/28 11:38:45;;;;;;;5.05;1.85;;;23.00;70.80;;;;;;5090714;28;20024;-70
2022/10/28 11:41:53;;;;;;;2.92;1.40;;;23.00;70.20;;;;;;5072506;28;20044;-71
2022/10/28 11:44:39;;;;;;;1.80;1.30;;;23.00;70.10;;;;;;5085103;28;20020;-70
2022/10/28 11:47:16;;;;;;;5.93;1.48;;;23.10;70.00;;;;;;5090694;28;20063;-70
2022/10/28 11:50:11;;;;;;;2.55;1.40;;;23.40;69.10;;;;;;5092102;28;20505;-70
2022/10/28 11:52:37;;;;;;;1.88;1.15;;;23.70;68.00;;;;;;5104006;28;20050;-69
2022/10/28 11:55:23;;;;;;;3.47;1.10;;;23.90;67.20;;;;;;5087387;28;20110;-69
2022/10/28 11:58:03;;;;;;;2.80;1.35;;;24.00;66.90;;;;;;5082870;28;20071;-69
2022/10/28 12:00:47;;;;;;;2.53;0.98;;;24.00;66.10;;;;;;5094827;28;20020;-70
2022/10/28 12:03:16;;;;;;;3.22;1.75;;;24.20;66.20;;;;;;5087067;28;20032;-69
2022/10/28 12:06:00;;;;;;;2.97;1.92;;;24.60;65.00;;;;;;5086240;28;20383;-70
2022/10/28 12:09:01;;;;;;;3.22;1.30;;;24.80;64.20;;;;;;5088260;28;20153;-70
2022/10/28 12:12:07;;;;;;;8.18;1.23;;;24.90;63.70;;;;;;5090136;28;20032;-70
2022/10/28 12:14:53;;;;;;;3.40;1.05;;;24.90;63.10;;;;;;5078985;28;20031;-70
2022/10/28 12:17:39;;;;;;;3.15;1.75;;;24.90;63.30;;;;;;5089863;28;20043;-70
2022/10/28 12:20:21;;;;;;;2.10;1.13;;;24.70;63.60;;;;;;5088146;28;20023;-69
2022/10/28 12:22:50;;;;;;;3.03;1.95;;;24.40;64.00;;;;;;5089414;28;20048;-69
2022/10/28 12:25:23;;;;;;;2.28;1.38;;;24.30;64.40;;;;;;5093375;28;20374;-69
2022/10/28 12:27:53;;;;;;;3.65;1.42;;;24.30;64.30;;;;;;5096222;28;20169;-69
2022/10/28 12:30:26;;;;;;;1.92;1.63;;;24.60;63.80;;;;;;5088631;28;20012;-69
2022/10/28 12:33:08;;;;;;;4.13;1.73;;;24.50;63.90;;;;;;5079939;28;20032;-70
2022/10/28 12:35:36;;;;;;;;;;;24.30;64.30;;;;;;5086923;28;20012;-70
2022/10/28 12:38:10;;;;;;;2.55;1.13;;;24.30;64.20;;;;;;5089115;28;20428;-70
2022/10/28 12:41:15;;;;;;;2.78;1.23;;;24.30;64.20;;;;;;5091307;28;20020;-70
2022/10/28 12:43:56;;;;;;;5.38;1.90;;;24.30;63.90;;;;;;5041903;28;20464;-70
2022/10/28 12:46:43;;;;;;;3.42;1.25;;;24.30;64.10;;;;;;5083536;28;20051;-69
2022/10/28 12:49:29;;;;;;;1.38;1.20;;;24.20;64.10;;;;;;5084762;28;20032;-70
2022/10/28 12:51:57;;;;;;;4.35;1.23;;;24.20;63.90;;;;;;5110072;28;20040;-69
2022/10/28 12:54:42;;;;;;;7.53;1.98;;;24.10;63.90;;;;;;5096447;28;20047;-69
2022/10/28 12:57:13;;;;;;;5.75;1.88;;;24.10;63.00;;;;;;5089132;28;20514;-70
2022/10/28 12:59:47;;;;;;;3.10;1.65;;;24.00;63.50;;;;;;5091644;28;20024;-69
2022/10/28 13:02:28;;;;;;;2.28;1.35;;;24.00;63.20;;;;;;5092153;28;20499;-69
2022/10/28 13:04:55;;;;;;;2.00;1.55;;;24.00;63.20;;;;;;5088841;28;20024;-70
2022/10/28 13:07:42;;;;;;;2.50;1.13;;;23.90;63.30;;;;;;5090867;28;20480;-71
2022/10/28 13:10:30;;;;;;;6.60;1.52;;;23.90;62.80;;;;;;5089870;28;20585;-70
2022/10/28 13:13:13;;;;;;;3.95;1.70;;;23.90;62.10;;;;;;5091117;28;20032;-70